To NAV CANADA Home Page Login to a new session Search on AWWS site Disclaimer Vers la page française équivalente Tips FAQ What's new on the site To the Forecasts and Observations / NOTAM section To "File a Flight Plan" website Publications and other links Update of the User's profile FIC Telephone Numbers My Weather Data Folder Route Weather Data Regional Weather Data Local Weather Data To the Forecasts and Observations / NOTAM section
Request Generated 11/13/2018 at 18:04:40 UTC . Weather information available at that time is displayed.

METAR/TAF

ILES-DE-LA-MADELEINE/QC    

METAR CYGR 131800Z 24009KT 20SM FEW020 BKN070 BKN270 01/M06 A3023 RMK SC1AC5CI1 PRESFR SLP238=
METAR CYGR 131700Z 25012KT 20SM FEW020 OVC100 01/M05 A3027 RMK SC1AS7 SLP252=
METAR CYGR 131600Z CCA 26012KT 20SM SCT020 BKN082 01/M05 A3028 RMK SC3AS4 SLP255=
METAR CYGR 131600Z 26012KT 20SM SCT002 BKN082 01/M05 A3028 RMK SC3AS4 SLP255=

TAF AMD CYGR 131546Z 1315/1402 26010KT P6SM BKN020 BKN110 TEMPO
1315/1318 SCT020 BKN110
FM131800 23010KT P6SM -SNRA BKN020 OVC060 TEMPO 1318/1322 P6SM
NSW SCT020 OVC110
BECMG 1320/1322 18012KT
FM132200 18015KT 3SM -RASN BR BKN015 OVC025
BECMG 1322/1324 14015G25KT
RMK NXT FCST BY 132000Z=
Your time UTC time
Weather data provided by Environment Canada and NAV CANADA